Houlton, ME

3:15 PM EST on December 25, 2014 (GMT -0500)
Houlton International | Change Station
CLOSE
Current Station
Airport
Location: Houlton,
Elevation: 492 ft
Nearby Weather Stations

Elev 492 ft 46.12 °N, 67.79 °W | Updated 22 minutes ago

Partly Cloudy
Partly Cloudy
44 °F
Feels Like 37 °F
N
16
Wind Variable Wind from SW
Gusts 23 mph

Today
High -- | Low -- °F
--% Chance of Precip.
Yesterday
High -- | Low -- °F
Precip. -- in
7:12 AM 3:50 PM
Waxing Crescent, 19% visible
Pressure 29.33 in
Visibility 10.0 miles
Clouds Few 4100 ft
Windchill 37 °F
Dew Point 37 °F
Humidity 76%
Rainfall 0.54 in
Snow Depth Not available.
UV 0 out of 12
Pollen .10 out of 12
Air Quality Not available.
Flu Activity Not available.
METAR KHUL 251953Z AUTO 22014G20KT 10SM FEW041 07/03 A2932 RMK AO2 SLP930 T00670028

More Conditions Fewer Conditions

Pressure 29.33 in
Visibility 10.0 miles
Clouds Few 4100 ft
Windchill 37 °F
Dew Point 37 °F
Humidity 76%
Rainfall 0.54 in
Snow Depth Not available.
UV 0 out of 12
Pollen .10 out of 12
Air Quality Not available.
Flu Activity Not available.
METAR KHUL 251953Z AUTO 22014G20KT 10SM FEW041 07/03 A2932 RMK AO2 SLP930 T00670028

More Conditions Fewer Conditions

10-Day Weather Forecast

Almanac

Astronomy

Dec. 25, 2014 Rise Set
Actual Time
Civil Twilight
Nautical Twilight
Astronomical Twilight
Moon
Length of Visible Light
Length of Day
Tomorrow will be .
, % of the Moon is Illuminated

Today's Extremes

State Highs State Lows

Community

WunderPhotos

Upload Photos

1,780,388 photos uploaded!

WunderBlogs® & News

Nearby

Air Quality

  Air Quality AQ Index Pollutant
Not available.

Snow Depth

Station Depth Elevation

Earthquake Activity

City Distance Mag. Time & Date
Minimum magnitude displayed is 2.5.

Coastal Water Temperatures

Place Temperature

Nearby Weather Stations